Addicks, Texas
Current Conditions -  °F | °C
As of 6:53 PM on Thursday 27 Nov 2014 (Local Time) from KSGR Reporting Station
Clear Clear  
Wind Chill: 54°   Ceiling: Unl
Heat Index: 54°   Visibility: 10mi
Dew Point: 37°   Wind: 3mph
Humidity: 53%   Direction: 140°SE
Pressure: 30.42"   Gusts: NA
Location:  29.7757°N, 95.6037°W
Report Text: KSGR 280053Z AUTO 14003KT 10SM CLR 12/03 A3042 RMK AO2 SLP302 T01220028
Loading
Personal Weather Stations






























Interactive Weather Map New forecast layout! Learn more

10-Day Weather Forecast

Advertisements
Track Severe Weather on mobile